Time;durP1;ratioP1;P1;durP2;ratioP2;P2;SDS_P1;SDS_P2;PMS_P1;PMS_P2;Temp;Humidity;BMP_temperature;BMP_pressure;BME280_temperature;BME280_humidity;BME280_pressure;Samples;Min_cycle;Max_cycle;Signal;HPM_P1;HPM_P2
2023/03/02 06:53:47;;;;;;;4.05;3.10;;;;;;;;;;10507203;28;20462;-83
2023/03/02 06:58:48;;;;;;;6.22;4.03;;;;;;;;;;10508457;28;20087;-84
2023/03/02 07:03:49;;;;;;;5.10;2.72;;;;;;;;;;10503910;28;20032;-83
2023/03/02 07:08:50;;;;;;;6.57;4.45;;;;;;;;;;10506515;28;20032;-83
2023/03/02 07:13:51;;;;;;;7.22;4.97;;;;;;;;;;10506160;28;20027;-83
2023/03/02 07:18:52;;;;;;;12.80;6.55;;;;;;;;;;10507956;28;20025;-83
2023/03/02 07:23:53;;;;;;;9.95;5.47;;;;;;;;;;10504637;28;20127;-83
2023/03/02 07:28:54;;;;;;;8.45;5.78;;;;;;;;;;10506487;28;20088;-83
2023/03/02 07:33:55;;;;;;;8.38;5.90;;;;;;;;;;10506492;28;20025;-83
2023/03/02 07:38:56;;;;;;;7.53;5.13;;;;;;;;;;10504853;28;20021;-84
2023/03/02 07:43:57;;;;;;;9.35;5.70;;;;;;;;;;10513980;28;20021;-84
2023/03/02 07:48:58;;;;;;;9.73;6.40;;;;;;;;;;10519902;28;20409;-83
2023/03/02 07:54:01;;;;;;;6.50;4.82;;;;;;;;;;10530182;28;20028;-83
2023/03/02 07:59:02;;;;;;;8.73;6.15;;;;;;;;;;10502052;28;20031;-84
2023/03/02 08:04:03;;;;;;;5.60;3.60;;;;;;;;;;10479761;28;20412;-82
2023/03/02 08:09:05;;;;;;;7.03;5.20;;;;;;;;;;10476359;28;20029;-85
2023/03/02 08:14:06;;;;;;;11.32;7.43;;;;;;;;;;10472775;28;20041;-84
2023/03/02 08:19:07;;;;;;;14.18;9.50;;;;;;;;;;10470887;28;20040;-84
2023/03/02 08:24:09;;;;;;;12.70;8.55;;;;;;;;;;10471912;28;20045;-85
2023/03/02 08:29:10;;;;;;;10.80;7.50;;;;;;;;;;10474030;28;20103;-84
2023/03/02 08:34:11;;;;;;;11.60;7.80;;;;;;;;;;10475474;28;20055;-86
2023/03/02 08:39:12;;;;;;;11.20;7.38;;;;;;;;;;10481706;28;20127;-84
2023/03/02 08:44:13;;;;;;;10.30;7.80;;;;;;;;;;10483484;28;20028;-84
2023/03/02 08:49:15;;;;;;;10.75;6.45;;;;;;;;;;10480276;28;20045;-85
2023/03/02 08:54:16;;;;;;;9.55;5.45;;;;;;;;;;10482953;28;20056;-86
2023/03/02 08:59:17;;;;;;;10.73;8.05;;;;;;;;;;10480142;28;20051;-85
2023/03/02 09:04:18;;;;;;;8.82;6.20;;;;;;;;;;10486492;28;20021;-86
2023/03/02 09:09:19;;;;;;;12.55;8.20;;;;;;;;;;10485294;28;20037;-85
2023/03/02 09:14:20;;;;;;;10.30;8.02;;;;;;;;;;10477778;28;20036;-84
2023/03/02 09:19:22;;;;;;;8.10;5.45;;;;;;;;;;10470563;28;20032;-86
2023/03/02 09:24:23;;;;;;;9.70;6.88;;;;;;;;;;10472400;28;20017;-84
2023/03/02 09:29:24;;;;;;;11.73;8.35;;;;;;;;;;10470769;28;20112;-85
2023/03/02 09:34:25;;;;;;;8.50;5.93;;;;;;;;;;10479970;28;20052;-85
2023/03/02 09:39:26;;;;;;;9.23;6.38;;;;;;;;;;10482446;28;20056;-84
2023/03/02 09:44:46;;;;;;;7.57;5.95;;;;;;;;;;10474499;28;20072;-84
2023/03/02 09:49:50;;;;;;;8.38;5.65;;;;;;;;;;10476005;28;20083;-84
2023/03/02 09:54:51;;;;;;;9.48;7.05;;;;;;;;;;10475538;28;20017;-85
2023/03/02 10:00:12;;;;;;;8.32;6.32;;;;;;;;;;10475758;28;20060;-85
2023/03/02 10:05:16;;;;;;;7.32;5.63;;;;;;;;;;10475920;28;20021;-84
2023/03/02 10:10:25;;;;;;;9.23;6.53;;;;;;;;;;10478797;28;20053;-83
2023/03/02 10:15:32;;;;;;;9.85;6.60;;;;;;;;;;10492474;28;20029;-84
2023/03/02 10:21:03;;;;;;;19.63;14.35;;;;;;;;;;10476042;28;20084;-80
2023/03/02 10:26:13;;;;;;;10.70;7.50;;;;;;;;;;10464927;28;20435;-81
2023/03/02 10:31:17;;;;;;;6.75;5.18;;;;;;;;;;10466891;28;20124;-79
2023/03/02 10:36:22;;;;;;;9.50;6.55;;;;;;;;;;10464192;28;20036;-79
2023/03/02 10:41:35;;;;;;;8.82;5.70;;;;;;;;;;10470772;28;20029;-82
2023/03/02 10:46:43;;;;;;;9.25;6.35;;;;;;;;;;10485013;28;20032;-81
2023/03/02 10:51:44;;;;;;;7.68;4.90;;;;;;;;;;10471798;28;20029;-82
2023/03/02 10:56:50;;;;;;;8.65;5.97;;;;;;;;;;10467723;28;20037;-79
2023/03/02 11:02:24;;;;;;;9.20;5.40;;;;;;;;;;10460877;28;20052;-80
2023/03/02 11:07:27;;;;;;;7.78;6.00;;;;;;;;;;10448830;28;20069;-79
2023/03/02 11:12:30;;;;;;;7.32;5.00;;;;;;;;;;10460365;28;20036;-79
2023/03/02 11:17:33;;;;;;;7.32;5.88;;;;;;;;;;10461969;28;20025;-81
2023/03/02 11:22:44;;;;;;;5.82;4.40;;;;;;;;;;10461149;28;20048;-80
2023/03/02 11:27:47;;;;;;;6.47;4.38;;;;;;;;;;10474528;28;20032;-80
2023/03/02 11:32:48;;;;;;;7.20;4.75;;;;;;;;;;10472148;28;20063;-80
2023/03/02 11:37:53;;;;;;;6.78;4.00;;;;;;;;;;10465717;28;20087;-79
2023/03/02 11:42:56;;;;;;;12.18;8.52;;;;;;;;;;10473548;28;20053;-78
2023/03/02 11:48:12;;;;;;;11.15;6.43;;;;;;;;;;10467326;28;20078;-78
2023/03/02 11:53:15;;;;;;;6.95;5.28;;;;;;;;;;10468614;28;20033;-79
2023/03/02 11:58:18;;;;;;;5.05;3.92;;;;;;;;;;10466341;28;20115;-80
2023/03/02 12:03:31;;;;;;;6.40;4.72;;;;;;;;;;10471508;28;20029;-80
2023/03/02 12:08:40;;;;;;;7.63;5.15;;;;;;;;;;10471923;28;20108;-80
2023/03/02 12:13:42;;;;;;;6.28;4.70;;;;;;;;;;10468719;28;20028;-80
2023/03/02 12:18:46;;;;;;;8.55;4.72;;;;;;;;;;10465990;28;20489;-80
2023/03/02 12:23:47;;;;;;;6.63;4.90;;;;;;;;;;10465429;28;20096;-80
2023/03/02 12:28:57;;;;;;;9.45;4.78;;;;;;;;;;10466601;28;20033;-80
2023/03/02 12:33:59;;;;;;;9.67;5.57;;;;;;;;;;10467604;28;20033;-79
2023/03/02 12:39:03;;;;;;;7.47;4.75;;;;;;;;;;10466867;28;20029;-80
2023/03/02 12:44:12;;;;;;;7.38;5.32;;;;;;;;;;10464723;28;20160;-80
2023/03/02 12:49:33;;;;;;;8.40;5.10;;;;;;;;;;10466077;28;20033;-80
2023/03/02 12:54:34;;;;;;;7.07;4.22;;;;;;;;;;10465468;28;20032;-79
2023/03/02 12:59:35;;;;;;;;;;;;;;;;;;10468051;28;20044;-79
2023/03/02 13:04:36;;;;;;;8.50;6.05;;;;;;;;;;10469450;28;20324;-81
2023/03/02 13:09:39;;;;;;;7.38;5.20;;;;;;;;;;10468000;28;20120;-79
2023/03/02 13:14:40;;;;;;;7.00;5.05;;;;;;;;;;10466861;28;20111;-79
2023/03/02 13:19:42;;;;;;;8.02;5.38;;;;;;;;;;10484075;28;20052;-79
2023/03/02 13:24:51;;;;;;;8.38;5.78;;;;;;;;;;10462208;28;20497;-79
2023/03/02 13:29:54;;;;;;;7.95;6.00;;;;;;;;;;10461715;28;20106;-79
2023/03/02 13:34:57;;;;;;;6.97;5.45;;;;;;;;;;10467044;28;20143;-79
2023/03/02 13:39:59;;;;;;;6.38;4.50;;;;;;;;;;10468685;28;20052;-79
2023/03/02 13:45:20;;;;;;;7.60;5.22;;;;;;;;;;10470163;28;20116;-78
2023/03/02 13:50:23;;;;;;;6.30;4.53;;;;;;;;;;10464986;28;20044;-80
2023/03/02 13:55:25;;;;;;;10.25;7.35;;;;;;;;;;10471024;28;20098;-80
2023/03/02 14:00:28;;;;;;;7.57;5.82;;;;;;;;;;10463360;28;20052;-80
2023/03/02 14:05:32;;;;;;;6.78;5.18;;;;;;;;;;10462402;28;20039;-80
2023/03/02 14:10:33;;;;;;;9.00;6.55;;;;;;;;;;10462273;28;20032;-80
2023/03/02 14:15:37;;;;;;;8.35;6.80;;;;;;;;;;10471523;28;20025;-79
2023/03/02 14:20:38;;;;;;;9.65;6.00;;;;;;;;;;10470720;28;20079;-81
2023/03/02 14:25:39;;;;;;;10.15;6.15;;;;;;;;;;10461818;28;20025;-79
2023/03/02 14:30:43;;;;;;;;;;;;;;;;;;10462527;28;20152;-81
2023/03/02 14:35:44;;;;;;;8.68;6.25;;;;;;;;;;10461529;28;19905;-81
2023/03/02 14:40:45;;;;;;;;;;;;;;;;;;10460404;28;20089;-80
2023/03/02 14:45:46;;;;;;;14.00;7.53;;;;;;;;;;10459661;28;19905;-80
2023/03/02 14:50:48;;;;;;;6.88;4.82;;;;;;;;;;10459421;28;20499;-80
2023/03/02 14:55:49;;;;;;;9.40;6.65;;;;;;;;;;10459652;28;20028;-81
2023/03/02 15:00:50;;;;;;;;;;;;;;;;;;10460716;28;20033;-80
2023/03/02 15:05:53;;;;;;;7.63;6.15;;;;;;;;;;10469949;28;19905;-81
2023/03/02 15:10:54;;;;;;;8.65;6.40;;;;;;;;;;10467105;28;20032;-80
2023/03/02 15:15:55;;;;;;;;;;;;;;;;;;10468558;28;20039;-80
2023/03/02 15:20:56;;;;;;;7.72;6.10;;;;;;;;;;10468579;28;19912;-81
2023/03/02 15:26:00;;;;;;;8.25;5.90;;;;;;;;;;10470207;28;20031;-80
2023/03/02 15:31:08;;;;;;;11.15;6.13;;;;;;;;;;10466416;28;20056;-80
2023/03/02 15:36:10;;;;;;;12.07;7.93;;;;;;;;;;10467663;28;20025;-80
2023/03/02 15:41:11;;;;;;;;;;;;;;;;;;10466557;28;20447;-80
2023/03/02 15:46:12;;;;;;;7.25;5.30;;;;;;;;;;10465751;28;19992;-80
2023/03/02 15:51:13;;;;;;;11.52;8.52;;;;;;;;;;10466360;28;20135;-81
2023/03/02 15:56:14;;;;;;;;;;;;;;;;;;10468884;28;20049;-79
2023/03/02 16:01:15;;;;;;;8.38;5.35;;;;;;;;;;10468123;28;20358;-79
2023/03/02 16:06:17;;;;;;;9.77;6.07;;;;;;;;;;10466955;28;20044;-80
2023/03/02 16:11:21;;;;;;;;;;;;;;;;;;10467583;28;20052;-80
2023/03/02 16:16:23;;;;;;;8.32;6.43;;;;;;;;;;10467881;28;19916;-81
2023/03/02 16:21:24;;;;;;;;;;;;;;;;;;10468364;28;20048;-81
2023/03/02 16:26:25;;;;;;;;;;;;;;;;;;10465901;28;19908;-81
2023/03/02 16:31:27;;;;;;;8.95;5.22;;;;;;;;;;10466548;28;19931;-81
2023/03/02 16:36:28;;;;;;;7.60;5.65;;;;;;;;;;10465638;28;20025;-80
2023/03/02 16:41:29;;;;;;;;;;;;;;;;;;10465652;28;20112;-80
2023/03/02 16:46:31;;;;;;;6.65;4.85;;;;;;;;;;10466189;28;19905;-79
2023/03/02 16:51:32;;;;;;;10.18;7.88;;;;;;;;;;10467367;28;20044;-80
2023/03/02 16:56:33;;;;;;;10.65;8.30;;;;;;;;;;10504488;22;20024;-78
2023/03/02 17:01:34;;;;;;;;;;;;;;;;;;10483950;28;20375;-79
2023/03/02 17:06:35;;;;;;;15.07;9.13;;;;;;;;;;10468409;28;19905;-79
2023/03/02 17:11:36;;;;;;;;;;;;;;;;;;10436664;28;20040;-78
2023/03/02 17:16:40;;;;;;;11.38;8.70;;;;;;;;;;10435393;28;19905;-79
2023/03/02 17:21:41;;;;;;;10.95;7.72;;;;;;;;;;10453182;28;20030;-78
2023/03/02 17:26:42;;;;;;;;;;;;;;;;;;10436833;28;20124;-78
2023/03/02 17:31:43;;;;;;;11.13;7.75;;;;;;;;;;10438243;28;19909;-80
2023/03/02 17:36:44;;;;;;;14.32;10.20;;;;;;;;;;10438885;28;20026;-81
2023/03/02 17:41:45;;;;;;;8.43;6.35;;;;;;;;;;10431359;28;20116;-81
2023/03/02 17:46:46;;;;;;;12.98;9.38;;;;;;;;;;10435816;28;20472;-80
2023/03/02 17:51:47;;;;;;;12.18;9.27;;;;;;;;;;10431542;28;20136;-80
2023/03/02 17:56:48;;;;;;;13.82;10.40;;;;;;;;;;10428461;28;20503;-80
2023/03/02 18:01:49;;;;;;;12.98;9.25;;;;;;;;;;10435857;28;20072;-79
2023/03/02 18:06:50;;;;;;;9.07;6.55;;;;;;;;;;10430213;28;20045;-80
2023/03/02 18:11:51;;;;;;;9.40;7.32;;;;;;;;;;10429120;28;20491;-80
2023/03/02 18:16:52;;;;;;;10.27;7.75;;;;;;;;;;10426345;28;20045;-81
2023/03/02 18:21:53;;;;;;;10.40;7.97;;;;;;;;;;10427508;28;20131;-81
2023/03/02 18:26:54;;;;;;;11.15;8.45;;;;;;;;;;10424077;28;20064;-80
2023/03/02 18:31:55;;;;;;;10.15;7.15;;;;;;;;;;10422991;28;20422;-80
2023/03/02 18:36:56;;;;;;;13.30;10.05;;;;;;;;;;10423681;28;20087;-80
2023/03/02 18:41:57;;;;;;;16.85;14.07;;;;;;;;;;10424695;28;20093;-80
2023/03/02 18:46:59;;;;;;;10.30;6.60;;;;;;;;;;10427066;28;20156;-81
2023/03/02 18:52:04;;;;;;;9.75;6.75;;;;;;;;;;10424959;28;20462;-81
2023/03/02 18:57:06;;;;;;;13.70;10.82;;;;;;;;;;10424786;28;20033;-81
2023/03/02 19:02:11;;;;;;;13.30;10.38;;;;;;;;;;10426048;28;20034;-82
2023/03/02 19:07:12;;;;;;;13.60;10.57;;;;;;;;;;10425732;28;20152;-82
2023/03/02 19:12:13;;;;;;;;;;;;;;;;;;10424528;28;20026;-82
2023/03/02 19:17:14;;;;;;;10.80;7.68;;;;;;;;;;10423134;28;19905;-82
2023/03/02 19:22:15;;;;;;;;;;;;;;;;;;10427165;28;20060;-81
2023/03/02 19:27:16;;;;;;;10.98;8.35;;;;;;;;;;10426222;28;19932;-81
2023/03/02 19:32:18;;;;;;;;;;;;;;;;;;10427062;28;20036;-82
2023/03/02 19:37:19;;;;;;;10.15;7.85;;;;;;;;;;10425704;28;19956;-81
2023/03/02 19:42:20;;;;;;;11.15;7.55;;;;;;;;;;10425343;28;20060;-81
2023/03/02 19:47:21;;;;;;;;;;;;;;;;;;10427098;28;20484;-79
2023/03/02 19:52:23;;;;;;;13.50;10.60;;;;;;;;;;10424607;28;19924;-79
2023/03/02 19:57:24;;;;;;;14.52;11.15;;;;;;;;;;10421983;28;20565;-80
2023/03/02 20:02:25;;;;;;;11.40;9.20;;;;;;;;;;10428367;28;20029;-79
2023/03/02 20:07:26;;;;;;;;;;;;;;;;;;10427818;28;20036;-80
2023/03/02 20:12:27;;;;;;;10.40;8.38;;;;;;;;;;10426579;28;19909;-80
2023/03/02 20:17:28;;;;;;;;;;;;;;;;;;10428151;28;20089;-80
